createdAt,value
2022-08-09T00:02:31.543Z,93613.13
2022-08-09T00:07:44.856Z,93608.09
2022-08-09T00:12:52.344Z,93607.59
2022-08-09T00:18:07.513Z,93599.97
2022-08-09T00:23:55.083Z,93600.47
2022-08-09T00:28:39.825Z,93613.28
2022-08-09T00:33:49.175Z,93616.13
2022-08-09T00:38:54.522Z,93601.38
2022-08-09T00:44:09.846Z,93604.56
2022-08-09T00:49:21.002Z,93607.25
2022-08-09T00:54:31.491Z,93605.25
2022-08-09T00:59:47.092Z,93594.63
2022-08-09T01:04:56.006Z,93594.13
2022-08-09T01:10:13.930Z,93582.94
2022-08-09T01:15:22.859Z,93597.28
2022-08-09T01:20:53.683Z,93595.56
2022-08-09T01:26:15.191Z,93603.13
2022-08-09T01:32:28.184Z,93607.69
2022-08-09T01:36:45.732Z,93601.59
2022-08-09T01:41:55.898Z,93593.59
2022-08-09T01:47:06.251Z,93614.78
2022-08-09T01:52:18.915Z,93608.19
2022-08-09T01:57:40.230Z,93605.44
2022-08-09T02:02:50.809Z,93615.06
2022-08-09T02:08:41.254Z,93609.69
2022-08-09T02:13:37.715Z,93618.75
2022-08-09T02:18:47.793Z,93613.25
2022-08-09T02:23:56.394Z,93615.06
2022-08-09T02:29:04.379Z,93601.41
2022-08-09T02:34:40.400Z,93600.97
2022-08-09T02:39:45.393Z,93606.00
2022-08-09T02:44:59.811Z,93584.03
2022-08-09T02:50:08.651Z,93580.97
2022-08-09T02:55:19.970Z,93592.72
2022-08-09T03:00:26.477Z,93566.09
2022-08-09T03:05:34.732Z,93568.28
2022-08-09T03:10:38.839Z,93583.63
2022-08-09T03:16:06.172Z,93593.66
2022-08-09T03:21:08.771Z,93596.19
2022-08-09T03:26:15.277Z,93583.47
2022-08-09T03:31:21.288Z,93604.28
2022-08-09T03:36:28.140Z,93602.31
2022-08-09T03:41:45.730Z,93605.50
2022-08-09T03:46:51.516Z,93605.06
2022-08-09T03:52:00.447Z,93605.06
2022-08-09T03:57:19.807Z,93607.31
2022-08-09T04:02:28.393Z,93609.97
2022-08-09T04:07:47.743Z,93606.50
2022-08-09T04:12:56.387Z,93610.44
2022-08-09T04:18:00.855Z,93614.81
2022-08-09T04:23:10.034Z,93625.13
2022-08-09T04:28:33.672Z,93609.81
2022-08-09T04:33:52.629Z,93617.91
2022-08-09T04:39:02.186Z,93625.69
2022-08-09T04:44:11.110Z,93629.63
2022-08-09T04:49:15.071Z,93637.88
2022-08-09T04:54:19.248Z,93636.94
2022-08-09T04:59:22.775Z,93647.09
2022-08-09T05:04:30.754Z,93643.34
2022-08-09T05:09:42.016Z,93641.91
2022-08-09T05:14:48.769Z,93658.44
2022-08-09T05:19:58.089Z,93671.28
2022-08-09T05:25:02.571Z,93670.75
2022-08-09T05:30:06.350Z,93682.44
2022-08-09T05:35:11.634Z,93681.41
2022-08-09T05:40:15.519Z,93674.44
2022-08-09T05:45:19.314Z,93677.03
2022-08-09T05:50:50.627Z,93686.75
2022-08-09T05:55:54.318Z,93684.66
2022-08-09T06:00:58.095Z,93689.66
2022-08-09T06:06:06.014Z,93692.53
2022-08-09T06:11:16.742Z,93687.22
2022-08-09T06:16:22.779Z,93703.34
2022-08-09T06:21:26.005Z,93705.50
2022-08-09T06:26:30.135Z,93692.31
2022-08-09T06:31:40.049Z,93699.78
2022-08-09T06:37:00.718Z,93696.47
2022-08-09T06:42:08.909Z,93706.75
2022-08-09T06:47:14.958Z,93697.38
2022-08-09T06:52:18.682Z,93714.50
2022-08-09T06:58:01.423Z,93711.56
2022-08-09T07:02:51.739Z,93706.78
2022-08-09T07:08:00.694Z,93714.72
2022-08-09T07:13:18.491Z,93710.47
2022-08-09T07:18:28.100Z,93708.63
2022-08-09T07:23:36.129Z,93688.59
2022-08-09T07:29:09.287Z,93716.41
2022-08-09T07:34:02.846Z,93714.75
2022-08-09T07:39:06.390Z,93712.16
2022-08-09T07:44:14.892Z,93712.56
2022-08-09T07:49:18.136Z,93720.94
2022-08-09T07:54:27.901Z,93713.53
2022-08-09T07:59:45.665Z,93726.75
2022-08-09T08:04:54.063Z,93715.00
2022-08-09T08:10:08.985Z,93720.78
2022-08-09T08:15:17.638Z,93702.91
2022-08-09T08:20:30.299Z,93711.69
2022-08-09T08:25:39.989Z,93718.44
2022-08-09T08:30:47.741Z,93719.13
2022-08-09T08:35:58.310Z,93726.28
2022-08-09T08:41:05.636Z,93718.91
2022-08-09T08:46:33.022Z,93720.16
2022-08-09T08:51:41.857Z,93723.59
2022-08-09T08:57:05.154Z,93716.84
2022-08-09T09:02:31.207Z,93713.56
2022-08-09T09:07:37.101Z,93715.69
2022-08-09T09:12:47.369Z,93716.78
2022-08-09T09:17:52.938Z,93699.59
2022-08-09T09:23:01.795Z,93721.13
2022-08-09T09:28:08.026Z,93716.41
2022-08-09T09:33:20.391Z,93716.13
2022-08-09T09:38:36.371Z,93707.88
2022-08-09T09:43:41.556Z,93707.38
2022-08-09T09:49:06.364Z,93711.72
2022-08-09T09:54:22.874Z,93710.13
2022-08-09T09:59:35.887Z,93707.09
2022-08-09T10:04:39.913Z,93705.00
2022-08-09T10:09:54.728Z,93709.03
2022-08-09T10:15:17.458Z,93708.91
2022-08-09T10:20:32.899Z,93697.34
2022-08-09T10:26:08.021Z,93697.88
2022-08-09T10:36:26.504Z,93675.72
2022-08-09T10:41:31.248Z,93673.31
2022-08-09T10:47:00.854Z,93665.22
2022-08-09T10:52:28.166Z,93654.03
2022-08-09T10:57:37.839Z,93644.34
2022-08-09T11:03:19.542Z,93653.16
2022-08-09T11:08:47.325Z,93664.31
2022-08-09T11:14:34.536Z,93677.63
2022-08-09T11:20:12.155Z,93684.69
2022-08-09T11:25:45.362Z,93688.31
2022-08-09T11:30:51.225Z,93681.50
2022-08-09T11:35:59.461Z,93702.06
2022-08-09T11:41:38.391Z,93695.63
2022-08-09T11:47:10.937Z,93687.72
2022-08-09T11:53:15.739Z,93686.16
2022-08-09T11:58:00.944Z,93699.44
2022-08-09T12:03:09.733Z,93697.00
2022-08-09T12:08:29.396Z,93687.66
2022-08-09T12:14:07.194Z,93697.97
2022-08-09T12:19:00.541Z,93703.47
2022-08-09T12:24:09.505Z,93702.00
2022-08-09T12:29:33.390Z,93692.44
2022-08-09T12:34:46.625Z,93677.84
2022-08-09T12:40:02.501Z,93656.94
2022-08-09T12:45:32.437Z,93653.41
2022-08-09T12:50:30.353Z,93621.44
2022-08-09T12:56:15.479Z,93661.19
2022-08-09T13:00:57.696Z,93669.13
2022-08-09T13:06:13.129Z,93705.78
2022-08-09T13:11:23.402Z,93693.09
2022-08-09T13:16:49.439Z,93684.59
2022-08-09T13:22:37.409Z,93670.50
2022-08-09T13:27:48.837Z,93662.38
2022-08-09T13:32:58.631Z,93671.63
2022-08-09T13:38:02.423Z,93680.91
2022-08-09T13:43:09.997Z,93713.19
2022-08-09T13:48:15.580Z,93711.63
2022-08-09T13:53:19.187Z,93689.50
2022-08-09T13:58:22.273Z,93722.19
2022-08-09T14:04:04.821Z,93697.81
2022-08-09T14:08:51.434Z,93694.34
2022-08-09T14:14:24.562Z,93694.97
2022-08-09T14:19:20.537Z,93718.19
2022-08-09T14:24:54.158Z,93713.09
2022-08-09T14:30:35.929Z,93708.00
2022-08-09T14:35:20.989Z,93708.28
2022-08-09T14:40:38.877Z,93693.75
2022-08-09T14:46:54.313Z,93698.09
2022-08-09T14:51:16.929Z,93709.28
2022-08-09T14:56:21.770Z,93722.59
2022-08-09T15:01:30.582Z,93715.56
2022-08-09T15:06:33.723Z,93706.91
2022-08-09T15:11:38.205Z,93715.94
2022-08-09T15:16:41.350Z,93707.47
2022-08-09T15:21:55.589Z,93725.03
2022-08-09T15:27:03.525Z,93710.91
2022-08-09T15:32:28.833Z,93703.81
2022-08-09T15:37:56.698Z,93708.50
2022-08-09T15:43:03.130Z,93702.81
2022-08-09T15:48:28.145Z,93695.84
2022-08-09T15:54:04.839Z,93692.91
2022-08-09T15:58:55.214Z,93703.00
2022-08-09T16:03:58.461Z,93689.09
2022-08-09T16:09:04.934Z,93686.31
2022-08-09T16:14:08.702Z,93685.38
2022-08-09T16:19:13.868Z,93672.34
2022-08-09T16:24:33.145Z,93668.13
2022-08-09T16:29:50.617Z,93661.63
2022-08-09T16:34:58.202Z,93670.94
2022-08-09T16:40:05.486Z,93677.00
2022-08-09T16:45:10.598Z,93674.06
2022-08-09T16:50:32.009Z,93659.00
2022-08-09T16:55:58.849Z,93666.63
2022-08-09T17:01:01.319Z,93649.66
2022-08-09T17:06:28.227Z,93626.03
2022-08-09T17:11:32.952Z,93625.97
2022-08-09T17:16:44.547Z,93616.81
2022-08-09T17:21:48.719Z,93616.78
2022-08-09T17:26:59.423Z,93604.41
2022-08-09T17:32:02.489Z,93611.25
2022-08-09T17:37:06.154Z,93608.19
2022-08-09T17:42:41.317Z,93599.16
2022-08-09T17:47:49.734Z,93590.28
2022-08-09T17:52:58.629Z,93593.47
2022-08-09T17:58:05.432Z,93592.75
2022-08-09T18:03:09.479Z,93596.16
2022-08-09T18:08:13.470Z,93607.72
2022-08-09T18:13:43.370Z,93610.13
2022-08-09T18:18:43.086Z,93602.59
2022-08-09T18:24:09.633Z,93603.09
2022-08-09T18:30:40.109Z,93612.91
2022-08-09T18:34:41.104Z,93595.50
2022-08-09T18:39:48.423Z,93612.91
2022-08-09T18:44:52.191Z,93601.34
2022-08-09T18:49:56.089Z,93624.53
2022-08-09T18:55:13.559Z,93631.50
2022-08-09T19:00:20.372Z,93634.06
2022-08-09T19:05:49.045Z,93641.75
2022-08-09T19:10:48.933Z,93639.81
2022-08-09T19:15:56.293Z,93637.78
2022-08-09T19:21:00.548Z,93659.16
2022-08-09T19:26:05.495Z,93651.03
2022-08-09T19:31:09.965Z,93658.81
2022-08-09T19:36:13.599Z,93676.00
2022-08-09T19:41:32.862Z,93677.34
2022-08-09T19:46:50.132Z,93681.72
2022-08-09T19:51:57.287Z,93693.19
2022-08-09T19:57:01.234Z,93707.53
2022-08-09T20:03:23.949Z,93709.28
2022-08-09T20:07:56.705Z,93718.06
2022-08-09T20:12:53.010Z,93719.66
2022-08-09T20:17:58.544Z,93723.97
2022-08-09T20:23:03.549Z,93712.28
2022-08-09T20:28:10.247Z,93722.31
2022-08-09T20:33:16.585Z,93723.63
2022-08-09T20:38:42.148Z,93703.38
2022-08-09T20:43:44.654Z,93727.69
2022-08-09T20:48:48.176Z,93733.50
2022-08-09T20:53:52.353Z,93734.44
2022-08-09T20:58:59.065Z,93728.25
2022-08-09T21:04:08.196Z,93737.88
2022-08-09T21:09:41.576Z,93735.88
2022-08-09T21:14:49.107Z,93743.88
2022-08-09T21:20:18.681Z,93734.97
2022-08-09T21:25:38.239Z,93682.78
2022-08-09T21:30:42.252Z,93714.13
2022-08-09T21:35:50.839Z,93707.09
2022-08-09T21:40:55.172Z,93713.16
2022-08-09T21:45:59.422Z,93709.06
2022-08-09T21:51:13.328Z,93707.16
2022-08-09T21:56:43.081Z,93691.28
2022-08-09T22:02:00.864Z,93697.34
2022-08-09T22:07:05.722Z,93698.53
2022-08-09T22:12:17.863Z,93693.19
2022-08-09T22:17:23.091Z,93698.47
2022-08-09T22:22:26.870Z,93670.25
2022-08-09T22:27:30.232Z,93671.47
2022-08-09T22:32:34.560Z,93678.97
2022-08-09T22:37:40.535Z,93665.16
2022-08-09T22:42:45.810Z,93667.91
2022-08-09T22:48:29.899Z,93667.34
2022-08-09T22:53:13.662Z,93669.53
2022-08-09T22:58:20.258Z,93656.97
2022-08-09T23:04:05.948Z,93674.41
2022-08-09T23:08:58.864Z,93669.75
2022-08-09T23:14:03.777Z,93673.47
2022-08-09T23:19:08.108Z,93671.34
2022-08-09T23:24:11.353Z,93665.75
2022-08-09T23:29:15.940Z,93675.75
2022-08-09T23:34:19.309Z,93671.63
2022-08-09T23:39:23.469Z,93667.88
2022-08-09T23:44:26.526Z,93669.63
2022-08-09T23:49:29.655Z,93650.16
2022-08-09T23:54:33.215Z,93667.19
2022-08-09T23:59:56.364Z,93668.00
